Terminal Aerodrome Forecast
Issued by NWS

Home | Current Version | Previous Version | Text Only | Print | Product List | Glossary On
Versions: 1 2 3 4 5 6 7 8 9 10 11 12 13 14 15
787
FTUS43 KSGF 280528 CCA
TAFJLN
TAF COR
KJLN 280528Z 2806/2906 VRB04KT P6SM VCTS SCT035CB BKN060
      TEMPO 2806/2808 1SM +TSRA BKN025CB OVC050
     FM281000 02006KT 6SM BR SCT007 BKN015 OVC025
      TEMPO 2810/2814 BKN007 OVC015
     FM281600 02010KT P6SM SCT040
     FM290000 03005KT P6SM SKC=

USA.gov is the U.S. government's official web portal to all federal, state and local government web resources and services.